Terminal Aerodrome Forecast
Issued by NWS Grand Rapids, MI

Home | Current Version | Previous Version | Text Only | Print | Product List | Glossary On
Versions: 1 2 3 4 5 6 7 8 9 10 11 12 13 14 15 16 17 18 19 20 21
000
FTUS43 KGRR 280500 RRA
TAFGRR
TAF
KGRR 280544Z 2806/2906 33008KT P6SM SCT015 BKN050
      TEMPO 2806/2810 BKN015
     FM281000 34010KT P6SM BKN050
     FM281500 34012G20KT P6SM BKN035
     FM282300 31012KT P6SM SCT250=

USA.gov is the U.S. government's official web portal to all federal, state and local government web resources and services.